createdAt,value
2019-04-20T00:00:23.405Z,16.25
2019-04-20T00:01:28.426Z,16.26
2019-04-20T00:02:24.063Z,16.27
2019-04-20T00:03:29.812Z,16.32
2019-04-20T00:04:28.765Z,16.25
2019-04-20T00:05:23.546Z,16.27
2019-04-20T00:06:24.889Z,16.22
2019-04-20T00:07:28.558Z,16.18
2019-04-20T00:08:27.955Z,16.10
2019-04-20T00:09:26.583Z,16.14
2019-04-20T00:10:24.686Z,16.11
2019-04-20T00:11:29.456Z,16.14
2019-04-20T00:12:39.980Z,16.16
2019-04-20T00:13:34.590Z,16.22
2019-04-20T00:14:27.655Z,16.17
2019-04-20T00:15:24.065Z,16.18
2019-04-20T00:16:25.053Z,16.14
2019-04-20T00:17:25.038Z,16.13
2019-04-20T00:18:26.871Z,16.08
2019-04-20T00:19:33.707Z,16.08
2019-04-20T00:20:28.728Z,16.07
2019-04-20T00:21:24.717Z,16.08
2019-04-20T00:22:31.410Z,15.98
2019-04-20T00:23:29.522Z,16.08
2019-04-20T00:24:30.165Z,15.95
2019-04-20T00:25:32.865Z,15.96
2019-04-20T00:26:51.086Z,16.02
2019-04-20T00:27:44.299Z,16.04
2019-04-20T00:28:45.667Z,15.99
2019-04-20T00:29:40.475Z,16.06
2019-04-20T00:30:43.489Z,15.96
2019-04-20T00:31:40.227Z,15.99
2019-04-20T00:32:41.310Z,16.00
2019-04-20T00:33:38.860Z,16.02
2019-04-20T00:34:30.015Z,16.04
2019-04-20T00:35:25.130Z,16.00
2019-04-20T00:36:24.421Z,15.99
2019-04-20T00:37:25.358Z,16.00
2019-04-20T00:38:27.071Z,16.02
2019-04-20T00:39:25.767Z,15.99
2019-04-20T00:40:25.635Z,15.99
2019-04-20T00:41:25.750Z,16.02
2019-04-20T00:42:33.097Z,15.98
2019-04-20T00:43:30.397Z,15.95
2019-04-20T00:44:31.924Z,16.02
2019-04-20T00:45:29.600Z,15.95
2019-04-20T00:46:32.934Z,15.84
2019-04-20T00:47:37.303Z,15.86
2019-04-20T00:48:33.809Z,15.83
2019-04-20T00:49:41.316Z,15.83
2019-04-20T00:50:41.786Z,15.83
2019-04-20T00:51:39.439Z,15.75
2019-04-20T00:52:41.127Z,15.78
2019-04-20T00:53:31.369Z,15.77
2019-04-20T00:54:26.276Z,15.83
2019-04-20T00:55:25.249Z,15.74
2019-04-20T00:56:24.963Z,15.75
2019-04-20T00:57:39.371Z,15.81
2019-04-20T00:58:33.574Z,15.78
2019-04-20T00:59:36.917Z,15.81
2019-04-20T01:00:40.741Z,15.71
2019-04-20T01:01:47.453Z,15.80
2019-04-20T01:02:37.043Z,15.65
2019-04-20T01:03:39.360Z,15.77
2019-04-20T01:04:45.978Z,15.67
2019-04-20T01:05:46.395Z,15.65
2019-04-20T01:06:42.496Z,15.71
2019-04-20T01:07:37.127Z,15.63
2019-04-20T01:08:25.536Z,15.58
2019-04-20T01:09:26.494Z,15.62
2019-04-20T01:10:30.307Z,15.53
2019-04-20T01:11:30.848Z,15.45
2019-04-20T01:13:26.865Z,15.44
2019-04-20T01:14:36.402Z,15.51
2019-04-20T01:15:36.698Z,15.47
2019-04-20T01:16:36.539Z,15.35
2019-04-20T01:17:25.563Z,15.33
2019-04-20T01:18:25.583Z,15.31
2019-04-20T01:19:25.599Z,15.44
2019-04-20T01:20:26.403Z,15.40
2019-04-20T01:21:28.806Z,15.41
2019-04-20T01:22:28.326Z,15.40
2019-04-20T01:23:35.562Z,15.45
2019-04-20T01:26:01.261Z,15.38
2019-04-20T01:26:58.460Z,15.34
2019-04-20T01:28:10.249Z,15.34
2019-04-20T01:29:06.762Z,15.40
2019-04-20T01:30:06.383Z,15.33
2019-04-20T01:31:06.193Z,15.27
2019-04-20T01:32:08.052Z,15.27
2019-04-20T01:33:08.935Z,15.27
2019-04-20T01:34:03.127Z,15.20
2019-04-20T01:35:05.900Z,15.22
2019-04-20T01:36:14.794Z,15.15
2019-04-20T01:37:09.553Z,15.23
2019-04-20T01:38:13.948Z,15.18
2019-04-20T01:39:09.207Z,15.22
2019-04-20T01:39:57.614Z,15.26
2019-04-20T01:40:55.042Z,15.18
2019-04-20T01:41:54.073Z,15.13
2019-04-20T01:42:55.237Z,15.07
2019-04-20T01:43:54.377Z,15.16
2019-04-20T01:44:55.691Z,15.13
2019-04-20T01:46:01.366Z,15.15
2019-04-20T01:46:58.792Z,15.16
2019-04-20T01:47:56.236Z,15.10
2019-04-20T01:48:54.822Z,15.18
2019-04-20T01:50:02.721Z,15.18
2019-04-20T01:51:06.587Z,15.10
2019-04-20T01:52:03.979Z,15.18
2019-04-20T01:53:06.892Z,15.05
2019-04-20T01:54:06.710Z,15.10
2019-04-20T01:55:11.462Z,14.95
2019-04-20T01:56:13.986Z,15.07
2019-04-20T01:57:06.056Z,15.02
2019-04-20T01:58:12.195Z,15.04
2019-04-20T01:59:10.277Z,15.07
2019-04-20T02:00:03.638Z,14.94
2019-04-20T02:00:56.368Z,15.00
2019-04-20T02:01:59.218Z,14.97
2019-04-20T02:02:59.487Z,15.01
2019-04-20T02:03:57.180Z,14.97
2019-04-20T02:04:59.688Z,14.97
2019-04-20T02:06:01.832Z,15.00
2019-04-20T02:06:58.752Z,14.89
2019-04-20T02:07:55.850Z,14.93
2019-04-20T02:09:00.335Z,14.90
2019-04-20T02:09:59.841Z,14.94
2019-04-20T02:11:00.112Z,14.94
2019-04-20T02:11:55.705Z,14.82
2019-04-20T02:12:59.760Z,14.90
2019-04-20T02:13:58.794Z,14.80
2019-04-20T02:14:59.443Z,14.79
2019-04-20T02:15:59.026Z,14.75
2019-04-20T02:17:04.518Z,14.75
2019-04-20T02:18:11.385Z,14.70
2019-04-20T02:19:09.270Z,14.67
2019-04-20T02:20:17.054Z,14.77
2019-04-20T02:21:18.350Z,14.63
2019-04-20T02:22:08.844Z,14.63
2019-04-20T02:23:07.418Z,14.60
2019-04-20T02:24:00.791Z,14.45
2019-04-20T02:24:55.188Z,14.45
2019-04-20T02:25:55.058Z,14.41
2019-04-20T02:26:55.689Z,14.53
2019-04-20T02:28:13.793Z,14.53
2019-04-20T02:29:17.524Z,14.51
2019-04-20T02:30:21.843Z,14.41
2019-04-20T02:31:32.674Z,14.41
2019-04-20T02:32:23.226Z,14.44
2019-04-20T02:33:37.558Z,14.46
2019-04-20T02:34:33.207Z,14.31
2019-04-20T02:35:28.397Z,14.31
2019-04-20T02:36:40.335Z,14.45
2019-04-20T02:37:45.082Z,14.27
2019-04-20T02:38:46.570Z,14.41
2019-04-20T02:41:31.577Z,14.31
2019-04-20T02:42:34.670Z,14.30
2019-04-20T02:43:39.851Z,14.26
2019-04-20T02:44:34.032Z,14.15
2019-04-20T02:46:33.446Z,14.23
2019-04-20T02:47:30.638Z,14.27
2019-04-20T02:48:25.332Z,14.16
2019-04-20T02:49:40.299Z,14.20
2019-04-20T02:50:30.527Z,14.21
2019-04-20T02:51:33.438Z,14.21
2019-04-20T02:52:40.447Z,14.16
2019-04-20T02:53:30.773Z,14.15
2019-04-20T02:54:36.993Z,14.23
2019-04-20T02:55:35.805Z,14.13
2019-04-20T02:56:32.578Z,14.11
2019-04-20T02:57:51.036Z,14.16
2019-04-20T02:58:23.602Z,14.08
2019-04-20T02:59:54.082Z,14.15
2019-04-20T03:00:25.130Z,14.06
2019-04-20T03:01:14.913Z,14.05
2019-04-20T03:02:14.746Z,14.01
2019-04-20T03:03:09.013Z,14.01
2019-04-20T03:04:01.386Z,14.01
2019-04-20T03:05:10.254Z,13.97
2019-04-20T03:06:08.513Z,13.88
2019-04-20T03:07:13.166Z,13.93
2019-04-20T03:08:13.780Z,13.95
2019-04-20T03:09:22.537Z,13.93
2019-04-20T03:10:11.282Z,13.91
2019-04-20T03:11:20.883Z,13.94
2019-04-20T03:12:23.627Z,13.95
2019-04-20T03:13:18.805Z,13.91
2019-04-20T03:14:13.940Z,13.86
2019-04-20T03:15:20.211Z,13.86
2019-04-20T03:16:16.681Z,13.81
2019-04-20T03:17:25.261Z,13.70
2019-04-20T03:18:13.616Z,13.79
2019-04-20T03:19:14.130Z,13.72
2019-04-20T03:20:19.960Z,13.72
2019-04-20T03:21:21.282Z,13.72
2019-04-20T03:22:24.493Z,13.81
2019-04-20T03:23:35.871Z,13.81
2019-04-20T03:24:26.604Z,13.78
2019-04-20T03:25:18.705Z,13.75
2019-04-20T03:26:19.064Z,13.76
2019-04-20T03:27:16.222Z,13.83
2019-04-20T03:28:21.926Z,13.81
2019-04-20T03:29:11.374Z,13.81
2019-04-20T03:31:00.963Z,13.79
2019-04-20T03:31:45.164Z,13.73
2019-04-20T03:32:56.123Z,13.81
2019-04-20T03:33:38.891Z,13.79
2019-04-20T03:35:37.506Z,13.81
2019-04-20T03:36:25.924Z,13.73
2019-04-20T03:37:27.906Z,13.68
2019-04-20T03:38:17.315Z,13.66
2019-04-20T03:39:13.853Z,13.70
2019-04-20T03:40:16.175Z,13.58
2019-04-20T03:41:08.374Z,13.66
2019-04-20T03:41:58.784Z,13.60
2019-04-20T03:42:57.150Z,13.63
2019-04-20T03:44:04.127Z,13.62
2019-04-20T03:45:04.102Z,13.58
2019-04-20T03:46:04.188Z,13.62
2019-04-20T03:47:01.265Z,13.55
2019-04-20T03:48:10.266Z,13.57
2019-04-20T03:49:17.168Z,13.57
2019-04-20T03:50:18.574Z,13.50
2019-04-20T03:51:23.603Z,13.58
2019-04-20T03:52:13.227Z,13.42
2019-04-20T03:53:19.157Z,13.54
2019-04-20T03:54:13.808Z,13.51
2019-04-20T03:55:18.757Z,13.53
2019-04-20T03:56:24.898Z,13.58
2019-04-20T03:57:21.244Z,13.45
2019-04-20T03:58:18.542Z,13.45
2019-04-20T03:59:11.708Z,13.44
2019-04-20T04:00:16.202Z,13.42
2019-04-20T04:01:19.789Z,13.47
2019-04-20T04:03:45.887Z,13.51
2019-04-20T04:04:25.194Z,13.45
2019-04-20T04:05:13.970Z,13.40
2019-04-20T04:06:11.841Z,13.47
2019-04-20T04:07:01.094Z,13.44
2019-04-20T04:08:06.174Z,13.42
2019-04-20T04:09:12.187Z,13.45
2019-04-20T04:10:14.421Z,13.40
2019-04-20T04:11:17.501Z,13.39
2019-04-20T04:12:09.160Z,13.47
2019-04-20T04:12:58.907Z,13.39
2019-04-20T04:13:58.756Z,13.39
2019-04-20T04:14:58.005Z,13.39
2019-04-20T04:16:03.268Z,13.47
2019-04-20T04:17:01.269Z,13.40
2019-04-20T04:18:07.538Z,13.44
2019-04-20T04:19:07.819Z,13.35
2019-04-20T04:20:06.432Z,13.35
2019-04-20T04:21:03.598Z,13.25
2019-04-20T04:22:08.889Z,13.27
2019-04-20T04:23:15.001Z,13.40
2019-04-20T04:24:10.750Z,13.35
2019-04-20T04:25:13.170Z,13.25
2019-04-20T04:26:20.386Z,13.24
2019-04-20T04:27:09.424Z,13.28
2019-04-20T04:28:13.773Z,13.25
2019-04-20T04:29:13.786Z,13.36
2019-04-20T04:30:14.869Z,13.36
2019-04-20T04:31:16.484Z,13.28
2019-04-20T04:32:33.254Z,13.25
2019-04-20T04:33:44.501Z,13.28
2019-04-20T04:34:20.577Z,13.20
2019-04-20T04:35:13.795Z,13.37
2019-04-20T04:36:15.292Z,13.24
2019-04-20T04:37:16.344Z,13.37
2019-04-20T04:38:23.663Z,13.42
2019-04-20T04:39:22.849Z,13.36
2019-04-20T04:40:27.812Z,13.29
2019-04-20T04:41:32.053Z,13.27
2019-04-20T04:42:22.536Z,13.40
2019-04-20T04:43:22.204Z,13.36
2019-04-20T04:44:16.202Z,13.44
2019-04-20T04:45:04.901Z,13.36
2019-04-20T04:45:59.518Z,13.39
2019-04-20T04:47:04.386Z,13.36
2019-04-20T04:47:59.827Z,13.32
2019-04-20T04:49:08.850Z,13.39
2019-04-20T04:50:07.484Z,13.21
2019-04-20T04:51:03.412Z,13.28
2019-04-20T04:52:05.659Z,13.39
2019-04-20T04:53:07.590Z,13.36
2019-04-20T04:54:10.173Z,13.37
2019-04-20T04:55:12.146Z,13.37
2019-04-20T04:56:05.415Z,13.42
2019-04-20T04:56:59.137Z,13.42
2019-04-20T04:58:00.198Z,13.35
2019-04-20T04:59:00.282Z,13.42
2019-04-20T04:59:59.495Z,13.39
2019-04-20T05:01:05.688Z,13.48
2019-04-20T05:02:00.494Z,13.40
2019-04-20T05:03:03.845Z,13.42
2019-04-20T05:04:23.000Z,13.42
2019-04-20T05:05:21.422Z,13.39
2019-04-20T05:06:19.679Z,13.40
2019-04-20T05:07:12.598Z,13.37
2019-04-20T05:08:10.223Z,13.40
2019-04-20T05:09:03.293Z,13.42
2019-04-20T05:10:00.983Z,13.45
2019-04-20T05:11:00.633Z,13.44
2019-04-20T05:12:07.254Z,13.47
2019-04-20T05:13:00.742Z,13.50
2019-04-20T05:14:05.188Z,13.48
2019-04-20T05:15:08.010Z,13.53
2019-04-20T05:16:13.573Z,13.51
2019-04-20T05:17:15.308Z,13.60
2019-04-20T05:18:18.088Z,13.60
2019-04-20T05:19:38.418Z,13.63
2019-04-20T05:20:17.133Z,13.65
2019-04-20T05:21:21.892Z,13.66
2019-04-20T05:22:19.371Z,13.66
2019-04-20T05:23:12.695Z,13.69
2019-04-20T05:24:20.759Z,13.68
2019-04-20T05:25:21.332Z,13.78
2019-04-20T05:26:20.338Z,13.70
2019-04-20T05:27:23.071Z,13.81
2019-04-20T05:28:14.653Z,13.70
2019-04-20T05:29:08.472Z,13.72
2019-04-20T05:30:01.284Z,13.79
2019-04-20T05:31:03.573Z,13.79
2019-04-20T05:32:07.846Z,13.90
2019-04-20T05:33:07.785Z,13.88
2019-04-20T05:34:45.409Z,13.87
2019-04-20T05:35:24.202Z,13.99
2019-04-20T05:36:20.528Z,13.91
2019-04-20T05:37:29.639Z,13.95
2019-04-20T05:38:24.025Z,13.97
2019-04-20T05:39:26.925Z,13.97
2019-04-20T05:40:22.332Z,13.95
2019-04-20T05:41:17.402Z,14.06
2019-04-20T05:42:25.843Z,14.09
2019-04-20T05:43:20.570Z,14.09
2019-04-20T05:44:19.603Z,14.08
2019-04-20T05:45:16.681Z,14.03
2019-04-20T05:46:21.144Z,14.12
2019-04-20T05:47:21.442Z,14.23
2019-04-20T05:48:16.366Z,14.19
2019-04-20T05:49:24.352Z,14.21
2019-04-20T05:50:16.605Z,14.16
2019-04-20T05:51:26.802Z,14.20
2019-04-20T05:53:22.163Z,14.27
2019-04-20T05:54:23.680Z,14.27
2019-04-20T05:55:21.025Z,14.31
2019-04-20T05:56:28.962Z,14.31
2019-04-20T05:57:25.061Z,14.31
2019-04-20T05:58:24.659Z,14.33
2019-04-20T05:59:19.149Z,14.39
2019-04-20T06:00:32.033Z,14.44
2019-04-20T06:01:26.014Z,14.38
2019-04-20T06:02:25.049Z,14.36
2019-04-20T06:03:23.363Z,14.42
2019-04-20T06:04:28.397Z,14.42
2019-04-20T06:05:23.977Z,14.46
2019-04-20T06:06:22.069Z,14.44
2019-04-20T06:07:25.279Z,14.48
2019-04-20T06:08:32.053Z,14.53
2019-04-20T06:09:23.112Z,14.63
2019-04-20T06:10:29.036Z,14.67
2019-04-20T06:11:24.037Z,14.69
2019-04-20T06:12:20.078Z,14.71
2019-04-20T06:13:18.691Z,14.77
2019-04-20T06:14:11.407Z,14.77
2019-04-20T06:15:18.435Z,14.85
2019-04-20T06:16:18.654Z,14.86
2019-04-20T06:17:21.042Z,14.90
2019-04-20T06:18:16.307Z,15.00
2019-04-20T06:19:35.497Z,14.97
2019-04-20T06:20:19.796Z,15.02
2019-04-20T06:21:33.798Z,15.00
2019-04-20T06:22:28.472Z,15.12
2019-04-20T06:23:29.923Z,15.15
2019-04-20T06:24:24.901Z,15.34
2019-04-20T06:25:40.874Z,15.74
2019-04-20T06:27:25.888Z,16.85
2019-04-20T06:28:19.736Z,17.17
2019-04-20T06:29:18.292Z,17.28
2019-04-20T06:30:18.885Z,17.65
2019-04-20T06:31:28.205Z,17.73
2019-04-20T06:32:27.149Z,17.84
2019-04-20T06:33:30.875Z,17.98
2019-04-20T06:34:30.273Z,18.23
2019-04-20T06:35:35.053Z,18.51
2019-04-20T06:36:29.446Z,18.49
2019-04-20T06:37:23.225Z,18.76
2019-04-20T06:38:46.619Z,18.91
2019-04-20T06:39:24.089Z,19.00
2019-04-20T06:40:37.171Z,18.99
2019-04-20T06:41:37.921Z,19.15
2019-04-20T06:42:18.034Z,19.23
2019-04-20T06:43:19.665Z,19.30
2019-04-20T06:44:30.361Z,19.52
2019-04-20T06:45:28.330Z,19.71
2019-04-20T06:46:25.308Z,19.83
2019-04-20T06:47:27.335Z,19.87
2019-04-20T06:48:32.299Z,19.89
2019-04-20T06:49:30.914Z,19.87
2019-04-20T06:50:18.581Z,19.90
2019-04-20T06:51:25.084Z,19.75
2019-04-20T06:53:34.537Z,20.15
2019-04-20T06:54:12.455Z,20.35
2019-04-20T06:55:19.711Z,20.44
2019-04-20T06:56:24.994Z,20.44
2019-04-20T06:57:27.049Z,20.44
2019-04-20T06:58:39.145Z,20.61
2019-04-20T06:59:27.703Z,20.71
2019-04-20T07:00:26.075Z,20.72
2019-04-20T07:01:24.938Z,20.83
2019-04-20T07:02:29.883Z,21.08
2019-04-20T07:03:37.560Z,21.03
2019-04-20T07:04:38.942Z,21.18
2019-04-20T07:06:43.500Z,21.28
2019-04-20T07:07:23.892Z,21.19
2019-04-20T07:08:44.628Z,21.49
2019-04-20T07:09:33.938Z,21.74
2019-04-20T07:10:28.530Z,21.90
2019-04-20T07:11:23.893Z,21.83
2019-04-20T07:12:23.991Z,22.00
2019-04-20T07:13:17.730Z,22.09
2019-04-20T07:14:09.956Z,22.23
2019-04-20T07:15:21.377Z,22.41
2019-04-20T07:16:21.635Z,22.55
2019-04-20T07:17:32.945Z,22.81
2019-04-20T07:18:29.848Z,22.92
2019-04-20T07:19:24.879Z,22.42
2019-04-20T07:20:21.321Z,22.38
2019-04-20T07:21:41.708Z,22.23
2019-04-20T07:22:32.084Z,22.59
2019-04-20T07:23:28.169Z,22.63
2019-04-20T07:24:25.181Z,22.89
2019-04-20T07:25:24.452Z,22.73
2019-04-20T07:26:32.212Z,22.75
2019-04-20T07:29:27.218Z,23.21
2019-04-20T07:30:27.620Z,23.09
2019-04-20T07:31:24.673Z,23.60
2019-04-20T07:32:21.098Z,23.77
2019-04-20T07:33:30.324Z,23.74
2019-04-20T07:34:22.932Z,24.00
2019-04-20T07:35:24.825Z,24.12
2019-04-20T07:36:32.712Z,23.62
2019-04-20T07:37:51.486Z,23.63
2019-04-20T07:38:30.894Z,23.59
2019-04-20T07:39:28.022Z,23.74
2019-04-20T07:40:24.643Z,23.70
2019-04-20T07:41:33.041Z,23.64
2019-04-20T07:42:29.364Z,23.75
2019-04-20T07:43:25.455Z,23.92
2019-04-20T07:44:37.627Z,24.03
2019-04-20T07:46:40.715Z,24.02
2019-04-20T07:47:34.486Z,24.08
2019-04-20T07:48:33.802Z,24.14
2019-04-20T07:49:27.491Z,24.44
2019-04-20T07:50:18.614Z,24.74
2019-04-20T07:51:13.705Z,24.83
2019-04-20T07:52:04.417Z,24.80
2019-04-20T07:53:20.393Z,25.01
2019-04-20T07:54:28.285Z,25.11
2019-04-20T07:56:27.017Z,24.66
2019-04-20T07:57:27.245Z,24.44
2019-04-20T07:58:15.880Z,24.27
2019-04-20T07:59:19.080Z,24.27
2019-04-20T08:00:35.562Z,24.40
2019-04-20T08:01:32.873Z,24.49
2019-04-20T08:02:32.358Z,24.46
2019-04-20T08:03:24.683Z,24.39
2019-04-20T08:04:24.589Z,24.61
2019-04-20T08:05:22.004Z,24.27
2019-04-20T08:06:11.595Z,24.36
2019-04-20T08:07:09.196Z,24.18
2019-04-20T08:09:20.742Z,24.09
2019-04-20T08:10:09.984Z,24.33
2019-04-20T08:11:23.153Z,24.36
2019-04-20T08:12:34.037Z,24.64
2019-04-20T08:13:32.018Z,24.74
2019-04-20T08:14:30.232Z,24.94
2019-04-20T08:15:36.706Z,25.09
2019-04-20T08:16:31.078Z,25.00
2019-04-20T08:17:30.955Z,25.14
2019-04-20T08:18:49.892Z,25.37
2019-04-20T08:19:25.748Z,25.52
2019-04-20T08:20:29.665Z,25.48
2019-04-20T08:21:32.859Z,25.84
2019-04-20T08:22:27.077Z,25.74
2019-04-20T08:23:38.843Z,25.86
2019-04-20T08:24:22.938Z,25.48
2019-04-20T08:25:17.839Z,25.45
2019-04-20T08:26:14.067Z,25.78
2019-04-20T08:27:09.148Z,25.94
2019-04-20T08:28:15.391Z,25.93
2019-04-20T08:29:17.971Z,25.76
2019-04-20T08:30:24.992Z,25.94
2019-04-20T08:31:21.887Z,26.01
2019-04-20T08:32:22.850Z,26.11
2019-04-20T08:33:24.442Z,25.91
2019-04-20T08:34:32.026Z,26.17
2019-04-20T08:35:31.875Z,25.97
2019-04-20T08:36:26.974Z,25.94
2019-04-20T08:37:25.332Z,26.50
2019-04-20T08:40:46.319Z,26.42
2019-04-20T08:41:48.626Z,26.68
2019-04-20T08:42:57.249Z,26.53
2019-04-20T08:43:54.230Z,26.32
2019-04-20T08:45:48.459Z,26.44
2019-04-20T08:46:54.778Z,26.68
2019-04-20T08:48:03.761Z,26.82
2019-04-20T08:48:46.678Z,27.19
2019-04-20T08:49:52.600Z,26.91
2019-04-20T08:50:46.789Z,27.04
2019-04-20T08:51:53.769Z,27.16
2019-04-20T08:53:07.195Z,26.68
2019-04-20T08:53:45.071Z,26.87
2019-04-20T08:54:39.167Z,27.05
2019-04-20T08:55:43.828Z,27.08
2019-04-20T08:56:34.898Z,27.13
2019-04-20T08:57:24.775Z,26.94
2019-04-20T08:58:24.827Z,27.15
2019-04-20T08:59:25.435Z,26.99
2019-04-20T09:00:33.351Z,27.27
2019-04-20T09:01:30.352Z,27.49
2019-04-20T09:02:25.825Z,27.68
2019-04-20T09:12:11.890Z,27.59
2019-04-20T09:13:05.733Z,27.80
2019-04-20T09:13:58.728Z,27.53
2019-04-20T09:14:50.877Z,27.64
2019-04-20T09:15:51.342Z,27.49
2019-04-20T09:16:59.177Z,27.71
2019-04-20T09:17:56.901Z,27.98
2019-04-20T09:18:57.875Z,27.66
2019-04-20T09:20:49.881Z,27.72
2019-04-20T09:21:50.259Z,27.90
2019-04-20T09:24:58.676Z,27.87
2019-04-20T09:26:59.125Z,27.76
2019-04-20T09:28:30.916Z,28.43
2019-04-20T09:29:33.597Z,28.72
2019-04-20T09:30:34.898Z,29.06
2019-04-20T09:32:40.159Z,29.30
2019-04-20T09:33:43.960Z,29.11
2019-04-20T09:34:41.897Z,29.11
2019-04-20T09:35:38.961Z,28.90
2019-04-20T09:36:32.470Z,28.72
2019-04-20T09:37:44.710Z,28.63
2019-04-20T09:38:34.835Z,28.75
2019-04-20T09:39:30.475Z,28.76
2019-04-20T09:40:40.242Z,28.57
2019-04-20T09:41:41.140Z,28.42
2019-04-20T09:42:22.176Z,28.64
2019-04-20T09:43:23.769Z,28.85
2019-04-20T09:44:32.647Z,29.15
2019-04-20T09:45:30.542Z,29.23
2019-04-20T09:46:22.303Z,29.20
2019-04-20T09:47:27.424Z,29.47
2019-04-20T09:48:32.000Z,29.30
2019-04-20T09:49:37.819Z,29.33
2019-04-20T09:50:37.655Z,29.35
2019-04-20T09:51:40.253Z,29.21
2019-04-20T09:52:45.729Z,29.13
2019-04-20T09:53:35.707Z,29.39
2019-04-20T09:54:41.646Z,29.73
2019-04-20T09:55:33.782Z,29.81
2019-04-20T09:56:38.778Z,29.77
2019-04-20T09:57:37.856Z,29.40
2019-04-20T09:58:37.672Z,29.29
2019-04-20T09:59:45.139Z,29.14
2019-04-20T10:00:37.178Z,29.10
2019-04-20T10:01:31.174Z,29.13
2019-04-20T10:02:27.828Z,29.23
2019-04-20T10:03:22.769Z,29.10
2019-04-20T10:04:23.959Z,29.01
2019-04-20T10:05:23.316Z,29.06
2019-04-20T10:06:27.293Z,28.73
2019-04-20T10:07:26.133Z,29.28
2019-04-20T10:08:23.921Z,29.39
2019-04-20T10:09:28.004Z,29.33
2019-04-20T10:10:31.786Z,29.33
2019-04-20T10:11:23.624Z,29.13
2019-04-20T10:12:24.116Z,29.33
2019-04-20T10:13:23.153Z,29.21
2019-04-20T10:14:24.720Z,29.20
2019-04-20T10:15:26.306Z,29.10
2019-04-20T10:16:23.840Z,28.92
2019-04-20T10:17:23.608Z,29.13
2019-04-20T10:18:23.769Z,28.64
2019-04-20T10:19:29.791Z,28.46
2019-04-20T10:21:23.657Z,29.05
2019-04-20T10:23:24.867Z,29.38
2019-04-20T10:24:24.413Z,29.32
2019-04-20T10:25:24.527Z,29.48
2019-04-20T10:26:24.771Z,29.17
2019-04-20T10:29:23.803Z,29.47
2019-04-20T10:30:24.015Z,29.69
2019-04-20T10:31:24.548Z,29.47
2019-04-20T10:32:31.123Z,29.48
2019-04-20T10:33:24.131Z,29.28
2019-04-20T10:35:36.621Z,29.10
2019-04-20T10:36:37.582Z,29.06
2019-04-20T10:37:37.736Z,29.42
2019-04-20T10:38:37.719Z,29.42
2019-04-20T10:39:36.758Z,29.97
2019-04-20T10:40:47.318Z,30.13
2019-04-20T10:41:45.179Z,30.32
2019-04-20T10:43:36.912Z,30.06
2019-04-20T10:44:37.014Z,29.85
2019-04-20T10:45:37.023Z,30.18
2019-04-20T10:46:37.025Z,30.06
2019-04-20T10:47:37.207Z,29.94
2019-04-20T10:48:41.599Z,29.91
2019-04-20T10:49:38.362Z,29.87
2019-04-20T10:50:37.181Z,29.51
2019-04-20T10:51:37.845Z,30.03
2019-04-20T10:52:38.119Z,30.28
2019-04-20T10:53:38.316Z,30.35
2019-04-20T10:54:38.493Z,30.31
2019-04-20T10:56:21.257Z,30.29
2019-04-20T10:57:19.975Z,30.48
2019-04-20T10:58:20.012Z,30.42
2019-04-20T10:59:21.426Z,30.67
2019-04-20T11:00:20.093Z,30.51
2019-04-20T11:01:20.129Z,30.71
2019-04-20T11:03:20.208Z,30.28
2019-04-20T11:04:21.259Z,30.22
2019-04-20T11:05:20.425Z,30.51
2019-04-20T11:06:20.615Z,30.60
2019-04-20T11:07:20.780Z,30.69
2019-04-20T11:08:20.489Z,30.77
2019-04-20T11:09:20.697Z,30.81
2019-04-20T11:10:25.729Z,30.60
2019-04-20T11:11:26.485Z,30.77
2019-04-20T11:13:21.417Z,31.01
2019-04-20T11:14:26.303Z,30.84
2019-04-20T11:15:20.997Z,30.85
2019-04-20T11:16:20.721Z,30.67
2019-04-20T11:17:20.752Z,30.66
2019-04-20T11:18:21.781Z,30.00
2019-04-20T11:20:21.446Z,29.84
2019-04-20T11:21:21.833Z,30.06
2019-04-20T11:22:22.135Z,29.97
2019-04-20T11:23:22.359Z,30.52
2019-04-20T11:24:22.421Z,30.75
2019-04-20T11:25:22.072Z,30.75
2019-04-20T11:26:22.083Z,30.77
2019-04-20T11:27:22.463Z,30.78
2019-04-20T11:28:21.953Z,30.52
2019-04-20T11:29:22.215Z,30.70
2019-04-20T11:30:22.475Z,30.71
2019-04-20T11:31:22.000Z,30.34
2019-04-20T11:32:22.214Z,30.73
2019-04-20T11:33:22.382Z,31.10
2019-04-20T11:34:27.776Z,30.97
2019-04-20T11:35:28.096Z,30.99
2019-04-20T11:36:21.503Z,31.15
2019-04-20T11:37:21.546Z,31.40
2019-04-20T11:38:22.023Z,31.12
2019-04-20T11:39:22.821Z,30.84
2019-04-20T11:40:21.660Z,31.03
2019-04-20T11:41:26.168Z,30.88
2019-04-20T11:42:21.803Z,30.60
2019-04-20T11:43:21.880Z,30.40
2019-04-20T11:44:21.817Z,30.51
2019-04-20T11:45:22.573Z,30.21
2019-04-20T11:46:22.810Z,30.10
2019-04-20T11:47:21.935Z,30.13
2019-04-20T11:48:23.131Z,30.22
2019-04-20T11:49:22.012Z,30.09
2019-04-20T11:50:22.053Z,30.18
2019-04-20T11:51:23.274Z,30.26
2019-04-20T11:52:23.720Z,30.00
2019-04-20T11:53:25.264Z,30.14
2019-04-20T11:54:22.208Z,30.29
2019-04-20T11:55:22.443Z,30.31
2019-04-20T11:56:28.042Z,30.18
2019-04-20T11:57:22.323Z,30.18
2019-04-20T11:58:22.363Z,29.92
2019-04-20T11:59:23.134Z,29.88
2019-04-20T12:00:25.128Z,29.92
2019-04-20T12:01:30.187Z,30.09
2019-04-20T12:02:30.124Z,30.34
2019-04-20T12:03:29.798Z,30.84
2019-04-20T12:04:33.750Z,30.91
2019-04-20T12:05:33.313Z,30.81
2019-04-20T12:06:23.157Z,31.03
2019-04-20T12:07:22.708Z,30.89
2019-04-20T12:08:23.007Z,30.44
2019-04-20T12:09:22.785Z,30.35
2019-04-20T12:10:25.607Z,30.85
2019-04-20T12:11:32.077Z,30.82
2019-04-20T12:12:32.699Z,30.84
2019-04-20T12:13:22.939Z,30.91
2019-04-20T12:14:22.998Z,30.66
2019-04-20T12:15:24.368Z,30.63
2019-04-20T12:16:23.617Z,30.16
2019-04-20T12:17:23.766Z,30.54
2019-04-20T12:18:23.453Z,30.89
2019-04-20T12:19:23.175Z,30.66
2019-04-20T12:20:26.968Z,30.73
2019-04-20T12:22:24.125Z,31.21
2019-04-20T12:23:24.482Z,31.04
2019-04-20T12:24:24.581Z,30.59
2019-04-20T12:25:23.731Z,30.19
2019-04-20T12:26:24.685Z,30.09
2019-04-20T12:27:24.885Z,30.22
2019-04-20T12:28:23.521Z,30.22
2019-04-20T12:29:23.810Z,30.22
2019-04-20T12:30:23.955Z,30.47
2019-04-20T12:31:26.936Z,30.40
2019-04-20T12:32:29.589Z,30.66
2019-04-20T12:33:24.379Z,30.26
2019-04-20T12:34:24.534Z,30.09
2019-04-20T12:35:24.483Z,30.34
2019-04-20T12:36:23.974Z,30.48
2019-04-20T12:37:25.052Z,30.73
2019-04-20T12:38:25.188Z,30.64
2019-04-20T12:39:24.909Z,30.75
2019-04-20T12:40:24.088Z,30.32
2019-04-20T12:41:34.470Z,30.48
2019-04-20T12:42:25.246Z,30.28
2019-04-20T12:43:24.088Z,30.37
2019-04-20T12:44:24.128Z,30.35
2019-04-20T12:45:24.164Z,30.60
2019-04-20T12:46:25.187Z,30.94
2019-04-20T12:47:24.252Z,30.69
2019-04-20T12:48:24.279Z,30.70
2019-04-20T12:49:25.409Z,31.00
2019-04-20T12:50:25.579Z,30.75
2019-04-20T12:51:33.174Z,30.73
2019-04-20T12:52:24.430Z,30.54
2019-04-20T12:53:24.603Z,30.86
2019-04-20T12:54:24.871Z,30.70
2019-04-20T12:55:24.544Z,30.49
2019-04-20T12:56:24.582Z,30.56
2019-04-20T12:57:24.800Z,30.70
2019-04-20T12:58:24.657Z,30.88
2019-04-20T12:59:25.551Z,31.01
2019-04-20T13:00:25.687Z,30.96
2019-04-20T13:01:25.802Z,31.13
2019-04-20T13:02:25.161Z,30.47
2019-04-20T13:03:25.584Z,30.14
2019-04-20T13:04:24.886Z,30.19
2019-04-20T13:05:25.604Z,30.22
2019-04-20T13:06:25.777Z,30.24
2019-04-20T13:07:24.997Z,30.32
2019-04-20T13:08:30.629Z,30.51
2019-04-20T13:09:26.285Z,30.81
2019-04-20T13:10:25.456Z,30.47
2019-04-20T13:11:25.145Z,30.56
2019-04-20T13:12:28.601Z,30.18
2019-04-20T13:13:26.169Z,30.11
2019-04-20T13:14:26.336Z,30.11
2019-04-20T13:15:26.465Z,30.26
2019-04-20T13:17:38.090Z,29.98
2019-04-20T13:18:39.208Z,29.66
2019-04-20T13:19:39.218Z,29.69
2019-04-20T13:20:38.099Z,29.40
2019-04-20T13:21:39.060Z,29.55
2019-04-20T13:22:39.177Z,29.65
2019-04-20T13:23:38.186Z,29.54
2019-04-20T13:24:39.111Z,29.61
2019-04-20T13:25:39.180Z,29.47
2019-04-20T13:26:38.298Z,29.32
2019-04-20T13:28:39.072Z,29.75
2019-04-20T13:30:39.642Z,29.45
2019-04-20T13:31:39.721Z,29.47
2019-04-20T13:32:39.525Z,29.32
2019-04-20T13:33:39.094Z,29.23
2019-04-20T13:34:38.595Z,29.30
2019-04-20T13:35:38.624Z,29.30
2019-04-20T13:36:39.966Z,29.13
2019-04-20T13:37:40.454Z,29.06
2019-04-20T13:38:41.376Z,29.03
2019-04-20T13:39:38.790Z,28.82
2019-04-20T13:40:39.791Z,28.90